sensor_id;sensor_type;location;lat;lon;timestamp;temperature;humidity
16437;DHT22;8328;52.206;21.006;2022-10-16T00:01:08;15.30;99.90
16437;DHT22;8328;52.206;21.006;2022-10-16T00:03:34;15.30;99.90
16437;DHT22;8328;52.206;21.006;2022-10-16T00:06:01;15.30;99.90
16437;DHT22;8328;52.206;21.006;2022-10-16T00:08:27;15.30;99.90
16437;DHT22;8328;52.206;21.006;2022-10-16T00:11:02;15.30;99.90
16437;DHT22;8328;52.206;21.006;2022-10-16T00:13:29;15.30;99.90
16437;DHT22;8328;52.206;21.006;2022-10-16T00:15:56;15.30;99.90
16437;DHT22;8328;52.206;21.006;2022-10-16T00:18:23;15.30;99.90
16437;DHT22;8328;52.206;21.006;2022-10-16T00:20:48;15.30;99.90
16437;DHT22;8328;52.206;21.006;2022-10-16T00:23:14;15.30;99.90
16437;DHT22;8328;52.206;21.006;2022-10-16T00:25:40;15.30;99.90
16437;DHT22;8328;52.206;21.006;2022-10-16T00:28:06;15.30;99.90
16437;DHT22;8328;52.206;21.006;2022-10-16T00:30:32;15.40;99.90
16437;DHT22;8328;52.206;21.006;2022-10-16T00:32:57;15.30;99.90
16437;DHT22;8328;52.206;21.006;2022-10-16T00:35:23;15.30;99.90
16437;DHT22;8328;52.206;21.006;2022-10-16T00:37:49;15.30;99.90
16437;DHT22;8328;52.206;21.006;2022-10-16T00:40:15;15.30;99.90
16437;DHT22;8328;52.206;21.006;2022-10-16T00:42:41;15.20;99.90
16437;DHT22;8328;52.206;21.006;2022-10-16T00:45:08;15.20;99.90
16437;DHT22;8328;52.206;21.006;2022-10-16T00:47:38;15.20;99.90
16437;DHT22;8328;52.206;21.006;2022-10-16T00:50:28;15.10;99.90
16437;DHT22;8328;52.206;21.006;2022-10-16T00:52:56;15.10;99.90
16437;DHT22;8328;52.206;21.006;2022-10-16T00:55:23;15.10;99.90
16437;DHT22;8328;52.206;21.006;2022-10-16T00:57:50;15.10;99.90
16437;DHT22;8328;52.206;21.006;2022-10-16T01:00:22;15.10;99.90
16437;DHT22;8328;52.206;21.006;2022-10-16T01:02:57;15.20;99.90
16437;DHT22;8328;52.206;21.006;2022-10-16T01:05:26;15.20;99.90
16437;DHT22;8328;52.206;21.006;2022-10-16T01:10:59;15.20;99.90
16437;DHT22;8328;52.206;21.006;2022-10-16T01:13:41;15.20;99.90
16437;DHT22;8328;52.206;21.006;2022-10-16T01:19:09;15.20;99.90
16437;DHT22;8328;52.206;21.006;2022-10-16T01:21:43;15.20;99.90
16437;DHT22;8328;52.206;21.006;2022-10-16T01:24:39;15.20;99.90
16437;DHT22;8328;52.206;21.006;2022-10-16T01:30:18;15.20;99.90
16437;DHT22;8328;52.206;21.006;2022-10-16T01:32:49;15.20;99.90
16437;DHT22;8328;52.206;21.006;2022-10-16T01:40:33;15.20;99.90
16437;DHT22;8328;52.206;21.006;2022-10-16T01:43:12;15.20;99.90
16437;DHT22;8328;52.206;21.006;2022-10-16T01:45:40;15.20;99.90
16437;DHT22;8328;52.206;21.006;2022-10-16T01:48:07;15.20;99.90
16437;DHT22;8328;52.206;21.006;2022-10-16T01:50:38;15.20;99.90
16437;DHT22;8328;52.206;21.006;2022-10-16T01:53:08;15.20;99.90
16437;DHT22;8328;52.206;21.006;2022-10-16T01:55:39;15.10;99.90
16437;DHT22;8328;52.206;21.006;2022-10-16T01:58:10;15.10;99.90
16437;DHT22;8328;52.206;21.006;2022-10-16T02:00:38;15.10;99.90
16437;DHT22;8328;52.206;21.006;2022-10-16T02:03:05;15.00;99.90
16437;DHT22;8328;52.206;21.006;2022-10-16T02:05:38;15.00;99.90
16437;DHT22;8328;52.206;21.006;2022-10-16T02:08:05;14.90;99.90
16437;DHT22;8328;52.206;21.006;2022-10-16T02:10:32;14.70;99.90
16437;DHT22;8328;52.206;21.006;2022-10-16T02:13:03;14.90;99.90
16437;DHT22;8328;52.206;21.006;2022-10-16T02:15:31;14.80;99.90
16437;DHT22;8328;52.206;21.006;2022-10-16T02:17:57;14.80;99.90
16437;DHT22;8328;52.206;21.006;2022-10-16T02:20:27;14.80;99.90
16437;DHT22;8328;52.206;21.006;2022-10-16T02:22:56;14.80;99.90
16437;DHT22;8328;52.206;21.006;2022-10-16T02:25:31;14.70;99.90
16437;DHT22;8328;52.206;21.006;2022-10-16T02:28:08;14.80;99.90
16437;DHT22;8328;52.206;21.006;2022-10-16T02:30:43;14.70;99.90
16437;DHT22;8328;52.206;21.006;2022-10-16T02:33:11;14.70;99.90
16437;DHT22;8328;52.206;21.006;2022-10-16T02:35:41;14.80;99.90
16437;DHT22;8328;52.206;21.006;2022-10-16T02:38:09;14.80;99.90
16437;DHT22;8328;52.206;21.006;2022-10-16T02:40:36;14.70;99.90
16437;DHT22;8328;52.206;21.006;2022-10-16T02:43:04;14.80;99.90
16437;DHT22;8328;52.206;21.006;2022-10-16T02:45:30;14.80;99.90
16437;DHT22;8328;52.206;21.006;2022-10-16T02:47:56;14.80;99.90
16437;DHT22;8328;52.206;21.006;2022-10-16T02:50:22;14.80;99.90
16437;DHT22;8328;52.206;21.006;2022-10-16T02:52:49;14.80;99.90
16437;DHT22;8328;52.206;21.006;2022-10-16T02:55:15;14.80;99.90
16437;DHT22;8328;52.206;21.006;2022-10-16T02:57:41;14.90;99.90
16437;DHT22;8328;52.206;21.006;2022-10-16T03:00:13;14.80;99.90
16437;DHT22;8328;52.206;21.006;2022-10-16T03:02:39;14.80;99.90
16437;DHT22;8328;52.206;21.006;2022-10-16T03:05:06;14.80;99.90
16437;DHT22;8328;52.206;21.006;2022-10-16T03:07:32;14.60;99.90
16437;DHT22;8328;52.206;21.006;2022-10-16T03:09:57;14.80;99.90
16437;DHT22;8328;52.206;21.006;2022-10-16T03:12:26;14.80;99.90
16437;DHT22;8328;52.206;21.006;2022-10-16T03:14:52;14.80;99.90
16437;DHT22;8328;52.206;21.006;2022-10-16T03:17:18;14.90;99.90
16437;DHT22;8328;52.206;21.006;2022-10-16T03:19:48;14.80;99.90
16437;DHT22;8328;52.206;21.006;2022-10-16T03:22:17;14.90;99.90
16437;DHT22;8328;52.206;21.006;2022-10-16T03:24:43;14.90;99.90
16437;DHT22;8328;52.206;21.006;2022-10-16T03:27:09;14.90;99.90
16437;DHT22;8328;52.206;21.006;2022-10-16T03:29:35;14.90;99.90
16437;DHT22;8328;52.206;21.006;2022-10-16T03:32:01;14.90;99.90
16437;DHT22;8328;52.206;21.006;2022-10-16T03:34:27;14.90;99.90
16437;DHT22;8328;52.206;21.006;2022-10-16T03:36:55;14.90;99.90
16437;DHT22;8328;52.206;21.006;2022-10-16T03:39:21;14.90;99.90
16437;DHT22;8328;52.206;21.006;2022-10-16T03:41:46;14.90;99.90
16437;DHT22;8328;52.206;21.006;2022-10-16T03:44:13;14.80;99.90
16437;DHT22;8328;52.206;21.006;2022-10-16T03:46:38;14.90;99.90
16437;DHT22;8328;52.206;21.006;2022-10-16T03:49:04;14.80;99.90
16437;DHT22;8328;52.206;21.006;2022-10-16T03:51:30;14.80;99.90
16437;DHT22;8328;52.206;21.006;2022-10-16T03:53:56;14.80;99.90
16437;DHT22;8328;52.206;21.006;2022-10-16T03:56:22;14.70;99.90
16437;DHT22;8328;52.206;21.006;2022-10-16T03:58:48;14.70;99.90
16437;DHT22;8328;52.206;21.006;2022-10-16T04:01:15;14.50;99.90
16437;DHT22;8328;52.206;21.006;2022-10-16T04:03:41;14.50;99.90
16437;DHT22;8328;52.206;21.006;2022-10-16T04:06:06;14.40;99.90
16437;DHT22;8328;52.206;21.006;2022-10-16T04:08:32;14.30;99.90
16437;DHT22;8328;52.206;21.006;2022-10-16T04:11:00;14.10;99.90
16437;DHT22;8328;52.206;21.006;2022-10-16T04:13:26;14.00;99.90
16437;DHT22;8328;52.206;21.006;2022-10-16T04:15:52;14.00;99.90
16437;DHT22;8328;52.206;21.006;2022-10-16T04:18:18;14.00;99.90
16437;DHT22;8328;52.206;21.006;2022-10-16T04:20:44;14.70;99.90
16437;DHT22;8328;52.206;21.006;2022-10-16T04:23:10;13.80;99.90
16437;DHT22;8328;52.206;21.006;2022-10-16T04:25:35;13.80;99.90
16437;DHT22;8328;52.206;21.006;2022-10-16T04:28:01;13.80;99.90
16437;DHT22;8328;52.206;21.006;2022-10-16T04:30:27;13.90;99.90
16437;DHT22;8328;52.206;21.006;2022-10-16T04:32:53;14.00;99.90
16437;DHT22;8328;52.206;21.006;2022-10-16T04:35:20;14.00;99.90
16437;DHT22;8328;52.206;21.006;2022-10-16T04:37:46;14.10;99.90
16437;DHT22;8328;52.206;21.006;2022-10-16T04:40:12;14.20;99.90
16437;DHT22;8328;52.206;21.006;2022-10-16T04:42:38;14.30;99.90
16437;DHT22;8328;52.206;21.006;2022-10-16T04:45:05;14.20;99.90
16437;DHT22;8328;52.206;21.006;2022-10-16T04:47:31;14.20;99.90
16437;DHT22;8328;52.206;21.006;2022-10-16T04:49:57;14.20;99.90
16437;DHT22;8328;52.206;21.006;2022-10-16T04:52:24;14.20;99.90
16437;DHT22;8328;52.206;21.006;2022-10-16T04:54:50;14.10;99.90
16437;DHT22;8328;52.206;21.006;2022-10-16T04:57:16;13.90;99.90
16437;DHT22;8328;52.206;21.006;2022-10-16T04:59:42;13.80;99.90
16437;DHT22;8328;52.206;21.006;2022-10-16T05:02:08;13.80;99.90
16437;DHT22;8328;52.206;21.006;2022-10-16T05:04:34;13.70;99.90
16437;DHT22;8328;52.206;21.006;2022-10-16T05:07:00;13.20;99.90
16437;DHT22;8328;52.206;21.006;2022-10-16T05:09:26;13.60;99.90
16437;DHT22;8328;52.206;21.006;2022-10-16T05:11:52;13.50;99.90
16437;DHT22;8328;52.206;21.006;2022-10-16T05:14:17;13.50;99.90
16437;DHT22;8328;52.206;21.006;2022-10-16T05:16:44;13.50;99.90
16437;DHT22;8328;52.206;21.006;2022-10-16T05:19:10;13.50;99.90
16437;DHT22;8328;52.206;21.006;2022-10-16T05:21:37;13.60;99.90
16437;DHT22;8328;52.206;21.006;2022-10-16T05:24:03;13.90;99.90
16437;DHT22;8328;52.206;21.006;2022-10-16T05:26:29;14.20;99.90
16437;DHT22;8328;52.206;21.006;2022-10-16T05:28:55;14.60;99.90
16437;DHT22;8328;52.206;21.006;2022-10-16T05:31:20;14.60;99.90
16437;DHT22;8328;52.206;21.006;2022-10-16T05:33:46;14.50;99.90
16437;DHT22;8328;52.206;21.006;2022-10-16T05:36:12;14.50;99.90
16437;DHT22;8328;52.206;21.006;2022-10-16T05:38:38;14.50;99.90
16437;DHT22;8328;52.206;21.006;2022-10-16T05:41:05;14.60;99.90
16437;DHT22;8328;52.206;21.006;2022-10-16T05:43:31;14.50;99.90
16437;DHT22;8328;52.206;21.006;2022-10-16T05:46:01;14.20;99.90
16437;DHT22;8328;52.206;21.006;2022-10-16T05:48:27;14.10;99.90
16437;DHT22;8328;52.206;21.006;2022-10-16T05:51:04;14.00;99.90
16437;DHT22;8328;52.206;21.006;2022-10-16T05:53:32;13.90;99.90
16437;DHT22;8328;52.206;21.006;2022-10-16T05:55:59;13.90;99.90
16437;DHT22;8328;52.206;21.006;2022-10-16T05:58:28;13.80;99.90
16437;DHT22;8328;52.206;21.006;2022-10-16T06:00:58;14.60;99.90
16437;DHT22;8328;52.206;21.006;2022-10-16T06:03:25;13.70;99.90
16437;DHT22;8328;52.206;21.006;2022-10-16T06:05:51;13.80;99.90
16437;DHT22;8328;52.206;21.006;2022-10-16T06:08:19;13.80;99.90
16437;DHT22;8328;52.206;21.006;2022-10-16T06:10:45;13.80;99.90
16437;DHT22;8328;52.206;21.006;2022-10-16T06:13:12;13.90;99.90
16437;DHT22;8328;52.206;21.006;2022-10-16T06:15:38;14.00;99.90
16437;DHT22;8328;52.206;21.006;2022-10-16T06:18:07;14.20;99.90
16437;DHT22;8328;52.206;21.006;2022-10-16T06:20:33;14.20;99.90
16437;DHT22;8328;52.206;21.006;2022-10-16T06:22:59;14.40;99.90
16437;DHT22;8328;52.206;21.006;2022-10-16T06:25:25;14.50;99.90
16437;DHT22;8328;52.206;21.006;2022-10-16T06:27:50;14.60;99.90
16437;DHT22;8328;52.206;21.006;2022-10-16T06:30:19;14.70;99.90
16437;DHT22;8328;52.206;21.006;2022-10-16T06:32:45;14.90;99.90
16437;DHT22;8328;52.206;21.006;2022-10-16T06:35:11;15.00;99.90
16437;DHT22;8328;52.206;21.006;2022-10-16T06:37:36;15.10;99.90
16437;DHT22;8328;52.206;21.006;2022-10-16T06:40:02;15.20;99.90
16437;DHT22;8328;52.206;21.006;2022-10-16T06:42:29;15.40;99.90
16437;DHT22;8328;52.206;21.006;2022-10-16T06:44:55;15.50;99.90
16437;DHT22;8328;52.206;21.006;2022-10-16T06:47:21;15.70;99.90
16437;DHT22;8328;52.206;21.006;2022-10-16T06:49:47;15.90;99.90
16437;DHT22;8328;52.206;21.006;2022-10-16T06:52:13;16.10;99.90
16437;DHT22;8328;52.206;21.006;2022-10-16T06:54:38;16.30;99.90
16437;DHT22;8328;52.206;21.006;2022-10-16T06:57:04;16.50;99.90
16437;DHT22;8328;52.206;21.006;2022-10-16T06:59:30;16.60;99.90
16437;DHT22;8328;52.206;21.006;2022-10-16T07:01:56;16.60;99.90
16437;DHT22;8328;52.206;21.006;2022-10-16T07:04:22;16.80;99.90
16437;DHT22;8328;52.206;21.006;2022-10-16T07:06:47;17.00;99.90
16437;DHT22;8328;52.206;21.006;2022-10-16T07:09:13;17.20;99.90
16437;DHT22;8328;52.206;21.006;2022-10-16T07:11:40;17.30;99.90
16437;DHT22;8328;52.206;21.006;2022-10-16T07:14:16;17.40;99.90
16437;DHT22;8328;52.206;21.006;2022-10-16T07:16:42;17.40;99.90
16437;DHT22;8328;52.206;21.006;2022-10-16T07:19:08;16.10;99.90
16437;DHT22;8328;52.206;21.006;2022-10-16T07:21:37;17.20;99.90
16437;DHT22;8328;52.206;21.006;2022-10-16T07:24:05;17.00;99.90
16437;DHT22;8328;52.206;21.006;2022-10-16T07:26:35;17.10;99.90
16437;DHT22;8328;52.206;21.006;2022-10-16T07:29:02;17.00;99.90
16437;DHT22;8328;52.206;21.006;2022-10-16T07:31:28;17.10;99.90
16437;DHT22;8328;52.206;21.006;2022-10-16T07:33:54;17.20;99.90
16437;DHT22;8328;52.206;21.006;2022-10-16T07:36:21;17.30;99.90
16437;DHT22;8328;52.206;21.006;2022-10-16T07:38:47;16.90;99.90
16437;DHT22;8328;52.206;21.006;2022-10-16T07:41:19;17.10;99.90
16437;DHT22;8328;52.206;21.006;2022-10-16T07:43:49;16.90;99.90
16437;DHT22;8328;52.206;21.006;2022-10-16T07:46:16;17.30;99.90
16437;DHT22;8328;52.206;21.006;2022-10-16T07:48:45;17.70;99.90
16437;DHT22;8328;52.206;21.006;2022-10-16T07:51:14;18.10;99.90
16437;DHT22;8328;52.206;21.006;2022-10-16T07:53:40;18.60;99.90
16437;DHT22;8328;52.206;21.006;2022-10-16T07:56:07;19.00;99.90
16437;DHT22;8328;52.206;21.006;2022-10-16T07:58:34;19.20;99.90
16437;DHT22;8328;52.206;21.006;2022-10-16T08:01:10;19.30;99.90
16437;DHT22;8328;52.206;21.006;2022-10-16T08:03:37;19.70;99.90
16437;DHT22;8328;52.206;21.006;2022-10-16T08:06:04;19.90;99.90
16437;DHT22;8328;52.206;21.006;2022-10-16T08:08:30;19.90;99.90
16437;DHT22;8328;52.206;21.006;2022-10-16T08:10:56;19.90;99.90
16437;DHT22;8328;52.206;21.006;2022-10-16T08:13:22;20.00;99.90
16437;DHT22;8328;52.206;21.006;2022-10-16T08:15:48;20.00;99.90
16437;DHT22;8328;52.206;21.006;2022-10-16T08:18:15;20.10;99.90
16437;DHT22;8328;52.206;21.006;2022-10-16T08:20:42;20.10;99.90
16437;DHT22;8328;52.206;21.006;2022-10-16T08:23:12;20.20;99.90
16437;DHT22;8328;52.206;21.006;2022-10-16T08:25:39;20.20;99.90
16437;DHT22;8328;52.206;21.006;2022-10-16T08:28:07;20.00;99.90
16437;DHT22;8328;52.206;21.006;2022-10-16T08:30:33;19.90;99.90
16437;DHT22;8328;52.206;21.006;2022-10-16T08:32:59;19.90;99.90
16437;DHT22;8328;52.206;21.006;2022-10-16T08:35:25;20.00;99.90
16437;DHT22;8328;52.206;21.006;2022-10-16T08:37:51;20.10;99.90
16437;DHT22;8328;52.206;21.006;2022-10-16T08:40:24;20.00;99.90
16437;DHT22;8328;52.206;21.006;2022-10-16T08:50:52;20.20;99.90
16437;DHT22;8328;52.206;21.006;2022-10-16T08:53:28;20.30;99.90
16437;DHT22;8328;52.206;21.006;2022-10-16T08:55:55;20.30;99.90
16437;DHT22;8328;52.206;21.006;2022-10-16T08:58:25;20.50;99.90
16437;DHT22;8328;52.206;21.006;2022-10-16T09:01:01;20.70;99.90
16437;DHT22;8328;52.206;21.006;2022-10-16T09:03:37;20.90;99.90
16437;DHT22;8328;52.206;21.006;2022-10-16T09:06:21;20.80;99.90
16437;DHT22;8328;52.206;21.006;2022-10-16T09:17:30;20.70;99.90
16437;DHT22;8328;52.206;21.006;2022-10-16T09:22:27;21.00;99.90
16437;DHT22;8328;52.206;21.006;2022-10-16T09:24:56;21.30;99.90
16437;DHT22;8328;52.206;21.006;2022-10-16T09:27:26;21.50;99.90
16437;DHT22;8328;52.206;21.006;2022-10-16T09:29:52;21.90;99.90
16437;DHT22;8328;52.206;21.006;2022-10-16T09:32:19;21.90;99.90
16437;DHT22;8328;52.206;21.006;2022-10-16T09:34:51;22.20;99.90
16437;DHT22;8328;52.206;21.006;2022-10-16T09:37:20;22.30;99.90
16437;DHT22;8328;52.206;21.006;2022-10-16T09:39:50;22.30;99.90
16437;DHT22;8328;52.206;21.006;2022-10-16T09:42:34;22.40;99.90
16437;DHT22;8328;52.206;21.006;2022-10-16T09:45:01;22.60;99.90
16437;DHT22;8328;52.206;21.006;2022-10-16T09:47:29;22.70;99.90
16437;DHT22;8328;52.206;21.006;2022-10-16T09:49:56;22.60;99.90
16437;DHT22;8328;52.206;21.006;2022-10-16T09:52:24;22.60;99.90
16437;DHT22;8328;52.206;21.006;2022-10-16T09:54:55;22.50;99.90
16437;DHT22;8328;52.206;21.006;2022-10-16T09:57:22;22.60;99.90
16437;DHT22;8328;52.206;21.006;2022-10-16T09:59:48;22.50;99.90
16437;DHT22;8328;52.206;21.006;2022-10-16T10:02:17;22.80;99.90
16437;DHT22;8328;52.206;21.006;2022-10-16T10:04:53;23.20;99.90
16437;DHT22;8328;52.206;21.006;2022-10-16T10:07:35;23.40;99.90
16437;DHT22;8328;52.206;21.006;2022-10-16T10:10:04;23.40;99.90
16437;DHT22;8328;52.206;21.006;2022-10-16T10:12:33;23.40;99.90
16437;DHT22;8328;52.206;21.006;2022-10-16T10:15:13;23.40;99.90
16437;DHT22;8328;52.206;21.006;2022-10-16T10:17:52;23.40;99.90
16437;DHT22;8328;52.206;21.006;2022-10-16T10:20:32;23.60;99.90
16437;DHT22;8328;52.206;21.006;2022-10-16T10:23:15;23.80;99.90
16437;DHT22;8328;52.206;21.006;2022-10-16T10:28:33;24.40;99.90
16437;DHT22;8328;52.206;21.006;2022-10-16T10:31:26;24.70;99.90
16437;DHT22;8328;52.206;21.006;2022-10-16T10:34:23;24.50;99.90
16437;DHT22;8328;52.206;21.006;2022-10-16T10:37:14;24.20;99.90
16437;DHT22;8328;52.206;21.006;2022-10-16T10:39:58;24.50;99.90
16437;DHT22;8328;52.206;21.006;2022-10-16T10:42:40;24.40;99.90
16437;DHT22;8328;52.206;21.006;2022-10-16T10:45:36;24.50;99.90
16437;DHT22;8328;52.206;21.006;2022-10-16T10:48:30;24.50;99.90
16437;DHT22;8328;52.206;21.006;2022-10-16T10:51:19;24.40;99.90
16437;DHT22;8328;52.206;21.006;2022-10-16T10:53:55;24.40;99.90
16437;DHT22;8328;52.206;21.006;2022-10-16T11:02:24;24.80;99.90
16437;DHT22;8328;52.206;21.006;2022-10-16T11:05:38;24.90;99.90
16437;DHT22;8328;52.206;21.006;2022-10-16T11:08:35;25.00;99.90
16437;DHT22;8328;52.206;21.006;2022-10-16T11:11:43;24.70;99.90
16437;DHT22;8328;52.206;21.006;2022-10-16T11:14:21;24.40;99.90
16437;DHT22;8328;52.206;21.006;2022-10-16T11:17:02;24.10;99.90
16437;DHT22;8328;52.206;21.006;2022-10-16T11:22:27;23.10;99.90
16437;DHT22;8328;52.206;21.006;2022-10-16T11:28:26;23.60;99.90
16437;DHT22;8328;52.206;21.006;2022-10-16T11:33:44;23.80;99.90
16437;DHT22;8328;52.206;21.006;2022-10-16T11:36:23;23.90;99.90
16437;DHT22;8328;52.206;21.006;2022-10-16T11:41:47;23.80;99.90
16437;DHT22;8328;52.206;21.006;2022-10-16T11:44:44;23.90;99.90
16437;DHT22;8328;52.206;21.006;2022-10-16T11:47:26;23.90;99.90
16437;DHT22;8328;52.206;21.006;2022-10-16T11:50:02;24.10;99.90
16437;DHT22;8328;52.206;21.006;2022-10-16T11:52:39;24.20;99.90
16437;DHT22;8328;52.206;21.006;2022-10-16T11:57:51;24.60;99.90
16437;DHT22;8328;52.206;21.006;2022-10-16T12:00:21;24.40;99.90
16437;DHT22;8328;52.206;21.006;2022-10-16T12:06:10;23.90;99.90
16437;DHT22;8328;52.206;21.006;2022-10-16T12:08:39;23.80;99.90
16437;DHT22;8328;52.206;21.006;2022-10-16T12:11:22;23.60;99.90
16437;DHT22;8328;52.206;21.006;2022-10-16T12:13:49;23.50;99.90
16437;DHT22;8328;52.206;21.006;2022-10-16T12:16:23;23.60;99.90
16437;DHT22;8328;52.206;21.006;2022-10-16T12:21:44;23.70;99.90
16437;DHT22;8328;52.206;21.006;2022-10-16T12:24:36;23.60;99.90
16437;DHT22;8328;52.206;21.006;2022-10-16T12:27:24;23.50;99.90
16437;DHT22;8328;52.206;21.006;2022-10-16T12:29:56;22.90;99.90
16437;DHT22;8328;52.206;21.006;2022-10-16T12:32:36;23.30;99.90
16437;DHT22;8328;52.206;21.006;2022-10-16T12:35:04;23.30;99.90
16437;DHT22;8328;52.206;21.006;2022-10-16T12:37:34;23.10;99.90
16437;DHT22;8328;52.206;21.006;2022-10-16T12:40:12;23.20;99.90
16437;DHT22;8328;52.206;21.006;2022-10-16T12:42:39;23.10;99.90
16437;DHT22;8328;52.206;21.006;2022-10-16T12:45:30;23.00;99.90
16437;DHT22;8328;52.206;21.006;2022-10-16T12:47:58;23.00;99.90
16437;DHT22;8328;52.206;21.006;2022-10-16T12:50:36;22.80;99.90
16437;DHT22;8328;52.206;21.006;2022-10-16T12:53:26;22.60;99.90
16437;DHT22;8328;52.206;21.006;2022-10-16T12:56:02;22.50;99.90
16437;DHT22;8328;52.206;21.006;2022-10-16T12:58:48;22.60;99.90
16437;DHT22;8328;52.206;21.006;2022-10-16T13:04:03;22.30;99.90
16437;DHT22;8328;52.206;21.006;2022-10-16T13:18:12;21.20;99.90
16437;DHT22;8328;52.206;21.006;2022-10-16T13:27:18;20.90;99.90
16437;DHT22;8328;52.206;21.006;2022-10-16T13:29:58;20.80;99.90
16437;DHT22;8328;52.206;21.006;2022-10-16T13:32:34;20.70;99.90
16437;DHT22;8328;52.206;21.006;2022-10-16T13:35:00;20.70;99.90
16437;DHT22;8328;52.206;21.006;2022-10-16T13:37:26;20.60;99.90
16437;DHT22;8328;52.206;21.006;2022-10-16T13:40:09;20.50;99.90
16437;DHT22;8328;52.206;21.006;2022-10-16T13:42:44;20.50;99.90
16437;DHT22;8328;52.206;21.006;2022-10-16T13:45:21;20.50;99.90
16437;DHT22;8328;52.206;21.006;2022-10-16T13:47:47;20.50;99.90
16437;DHT22;8328;52.206;21.006;2022-10-16T13:50:16;20.50;99.90
16437;DHT22;8328;52.206;21.006;2022-10-16T13:52:43;20.50;99.90
16437;DHT22;8328;52.206;21.006;2022-10-16T13:55:20;20.50;99.90
16437;DHT22;8328;52.206;21.006;2022-10-16T13:57:46;20.60;99.90
16437;DHT22;8328;52.206;21.006;2022-10-16T14:00:30;20.70;99.90
16437;DHT22;8328;52.206;21.006;2022-10-16T14:03:13;20.80;99.90
16437;DHT22;8328;52.206;21.006;2022-10-16T14:05:56;20.80;99.90
16437;DHT22;8328;52.206;21.006;2022-10-16T14:08:23;20.90;99.90
16437;DHT22;8328;52.206;21.006;2022-10-16T14:10:55;21.00;99.90
16437;DHT22;8328;52.206;21.006;2022-10-16T14:13:31;20.90;99.90
16437;DHT22;8328;52.206;21.006;2022-10-16T14:16:02;20.50;99.90
16437;DHT22;8328;52.206;21.006;2022-10-16T14:18:29;20.80;99.90
16437;DHT22;8328;52.206;21.006;2022-10-16T14:21:06;20.80;99.90
16437;DHT22;8328;52.206;21.006;2022-10-16T14:23:40;20.80;99.90
16437;DHT22;8328;52.206;21.006;2022-10-16T14:28:38;20.70;99.90
16437;DHT22;8328;52.206;21.006;2022-10-16T14:31:26;20.70;99.90
16437;DHT22;8328;52.206;21.006;2022-10-16T14:33:54;20.70;99.90
16437;DHT22;8328;52.206;21.006;2022-10-16T14:36:30;19.90;99.90
16437;DHT22;8328;52.206;21.006;2022-10-16T14:41:47;20.50;99.90
16437;DHT22;8328;52.206;21.006;2022-10-16T14:44:15;20.60;99.90
16437;DHT22;8328;52.206;21.006;2022-10-16T14:46:49;20.60;99.90
16437;DHT22;8328;52.206;21.006;2022-10-16T14:49:23;20.60;99.90
16437;DHT22;8328;52.206;21.006;2022-10-16T14:52:11;20.60;99.90
16437;DHT22;8328;52.206;21.006;2022-10-16T14:54:41;20.60;99.90
16437;DHT22;8328;52.206;21.006;2022-10-16T14:57:39;20.60;99.90
16437;DHT22;8328;52.206;21.006;2022-10-16T15:00:31;20.60;99.90
16437;DHT22;8328;52.206;21.006;2022-10-16T15:03:02;20.40;99.90
16437;DHT22;8328;52.206;21.006;2022-10-16T15:05:57;20.80;99.90
16437;DHT22;8328;52.206;21.006;2022-10-16T15:08:45;21.40;99.90
16437;DHT22;8328;52.206;21.006;2022-10-16T15:11:14;20.20;99.90
16437;DHT22;8328;52.206;21.006;2022-10-16T15:13:42;20.20;99.90
16437;DHT22;8328;52.206;21.006;2022-10-16T15:16:22;20.10;99.90
16437;DHT22;8328;52.206;21.006;2022-10-16T15:18:49;20.00;99.90
16437;DHT22;8328;52.206;21.006;2022-10-16T15:21:27;19.90;99.90
16437;DHT22;8328;52.206;21.006;2022-10-16T15:23:53;19.80;99.90
16437;DHT22;8328;52.206;21.006;2022-10-16T15:26:19;19.80;99.90
16437;DHT22;8328;52.206;21.006;2022-10-16T15:28:45;19.70;99.90
16437;DHT22;8328;52.206;21.006;2022-10-16T15:31:13;19.60;99.90
16437;DHT22;8328;52.206;21.006;2022-10-16T15:33:39;19.60;99.90
16437;DHT22;8328;52.206;21.006;2022-10-16T15:36:05;19.50;99.90
16437;DHT22;8328;52.206;21.006;2022-10-16T15:38:31;19.50;99.90
16437;DHT22;8328;52.206;21.006;2022-10-16T15:40:57;19.50;99.90
16437;DHT22;8328;52.206;21.006;2022-10-16T15:43:23;19.40;99.90
16437;DHT22;8328;52.206;21.006;2022-10-16T15:46:03;19.40;99.90
16437;DHT22;8328;52.206;21.006;2022-10-16T15:48:32;19.40;99.90
16437;DHT22;8328;52.206;21.006;2022-10-16T15:50:59;19.30;99.90
16437;DHT22;8328;52.206;21.006;2022-10-16T15:53:28;19.30;99.90
16437;DHT22;8328;52.206;21.006;2022-10-16T15:55:55;19.30;99.90
16437;DHT22;8328;52.206;21.006;2022-10-16T15:58:21;19.30;99.90
16437;DHT22;8328;52.206;21.006;2022-10-16T16:00:55;19.30;99.90
16437;DHT22;8328;52.206;21.006;2022-10-16T16:03:21;19.20;99.90
16437;DHT22;8328;52.206;21.006;2022-10-16T16:05:47;19.20;99.90
16437;DHT22;8328;52.206;21.006;2022-10-16T16:08:13;19.10;99.90
16437;DHT22;8328;52.206;21.006;2022-10-16T16:10:40;19.00;99.90
16437;DHT22;8328;52.206;21.006;2022-10-16T16:13:06;18.90;99.90
16437;DHT22;8328;52.206;21.006;2022-10-16T16:15:39;18.80;99.90
16437;DHT22;8328;52.206;21.006;2022-10-16T16:18:07;18.80;99.90
16437;DHT22;8328;52.206;21.006;2022-10-16T16:20:35;18.80;99.90
16437;DHT22;8328;52.206;21.006;2022-10-16T16:23:01;18.80;99.90
16437;DHT22;8328;52.206;21.006;2022-10-16T16:25:27;18.70;99.90
16437;DHT22;8328;52.206;21.006;2022-10-16T16:27:54;18.70;99.90
16437;DHT22;8328;52.206;21.006;2022-10-16T16:30:25;18.50;99.90
16437;DHT22;8328;52.206;21.006;2022-10-16T16:32:51;17.70;99.90
16437;DHT22;8328;52.206;21.006;2022-10-16T16:35:17;18.90;99.90
16437;DHT22;8328;52.206;21.006;2022-10-16T16:37:44;18.50;99.90
16437;DHT22;8328;52.206;21.006;2022-10-16T16:40:12;18.40;99.90
16437;DHT22;8328;52.206;21.006;2022-10-16T16:42:38;18.40;99.90
16437;DHT22;8328;52.206;21.006;2022-10-16T16:45:05;18.30;99.90
16437;DHT22;8328;52.206;21.006;2022-10-16T16:47:35;18.20;99.90
16437;DHT22;8328;52.206;21.006;2022-10-16T16:50:01;18.20;99.90
16437;DHT22;8328;52.206;21.006;2022-10-16T16:52:31;18.10;99.90
16437;DHT22;8328;52.206;21.006;2022-10-16T16:55:02;18.10;99.90
16437;DHT22;8328;52.206;21.006;2022-10-16T16:57:28;18.00;99.90
16437;DHT22;8328;52.206;21.006;2022-10-16T16:59:54;17.90;99.90
16437;DHT22;8328;52.206;21.006;2022-10-16T17:02:20;17.90;99.90
16437;DHT22;8328;52.206;21.006;2022-10-16T17:04:45;17.80;99.90
16437;DHT22;8328;52.206;21.006;2022-10-16T17:07:11;17.80;99.90
16437;DHT22;8328;52.206;21.006;2022-10-16T17:09:37;17.80;99.90
16437;DHT22;8328;52.206;21.006;2022-10-16T17:12:03;17.80;99.90
16437;DHT22;8328;52.206;21.006;2022-10-16T17:14:29;17.70;99.90
16437;DHT22;8328;52.206;21.006;2022-10-16T17:16:55;17.70;99.90
16437;DHT22;8328;52.206;21.006;2022-10-16T17:19:21;17.60;99.90